createdAt,value
2022-11-14T00:02:16.299Z,3.93
2022-11-14T00:05:05.817Z,3.93
2022-11-14T00:07:55.400Z,3.94
2022-11-14T00:10:43.047Z,3.95
2022-11-14T00:13:30.584Z,3.96
2022-11-14T00:16:19.118Z,3.98
2022-11-14T00:19:09.022Z,4.00
2022-11-14T00:21:55.755Z,4.03
2022-11-14T00:24:42.746Z,4.05
2022-11-14T00:27:29.417Z,4.06
2022-11-14T00:30:18.447Z,4.08
2022-11-14T00:33:05.199Z,4.11
2022-11-14T00:35:54.652Z,4.14
2022-11-14T00:38:41.818Z,4.16
2022-11-14T00:41:29.187Z,4.18
2022-11-14T00:44:16.666Z,4.20
2022-11-14T00:47:03.632Z,4.22
2022-11-14T00:49:50.846Z,4.24
2022-11-14T00:52:38.190Z,4.26
2022-11-14T00:55:24.914Z,4.28
2022-11-14T00:58:12.591Z,4.30
2022-11-14T01:00:59.371Z,4.31
2022-11-14T01:03:50.516Z,4.32
2022-11-14T01:06:37.754Z,4.33
2022-11-14T01:09:25.003Z,4.35
2022-11-14T01:12:12.676Z,4.38
2022-11-14T01:15:00.163Z,4.38
2022-11-14T01:17:47.013Z,4.39
2022-11-14T01:20:34.053Z,4.39
2022-11-14T01:23:20.964Z,4.38
2022-11-14T01:26:13.874Z,4.37
2022-11-14T01:29:01.091Z,4.36
2022-11-14T01:31:50.318Z,4.33
2022-11-14T01:34:37.099Z,4.30
2022-11-14T01:37:24.264Z,4.27
2022-11-14T01:40:18.359Z,4.25
2022-11-14T01:43:11.069Z,4.22
2022-11-14T01:46:10.497Z,4.20
2022-11-14T01:49:22.498Z,4.16
2022-11-14T01:52:14.505Z,4.12
2022-11-14T01:55:06.279Z,4.08
2022-11-14T01:57:53.280Z,4.05
2022-11-14T02:00:42.110Z,4.02
2022-11-14T02:03:30.109Z,3.99
2022-11-14T02:06:22.538Z,3.92
2022-11-14T02:09:10.907Z,3.84
2022-11-14T02:12:03.734Z,3.79
2022-11-14T02:14:54.489Z,3.74
2022-11-14T02:17:43.146Z,3.70
2022-11-14T02:20:34.530Z,3.70
2022-11-14T02:23:29.977Z,3.70
2022-11-14T02:26:21.563Z,3.71
2022-11-14T02:29:10.401Z,3.70
2022-11-14T02:31:56.967Z,3.67
2022-11-14T02:34:43.627Z,3.65
2022-11-14T02:37:30.341Z,3.62
2022-11-14T02:40:17.813Z,3.57
2022-11-14T02:43:05.873Z,3.54
2022-11-14T02:45:54.558Z,3.51
2022-11-14T02:48:42.567Z,3.47
2022-11-14T02:51:29.878Z,3.46
2022-11-14T02:54:16.815Z,3.45
2022-11-14T02:57:03.837Z,3.42
2022-11-14T02:59:51.883Z,3.38
2022-11-14T03:02:38.502Z,3.35
2022-11-14T03:05:26.019Z,3.31
2022-11-14T03:08:13.097Z,3.26
2022-11-14T03:11:07.460Z,3.24
2022-11-14T03:13:54.836Z,3.22
2022-11-14T03:16:41.742Z,3.19
2022-11-14T03:19:28.307Z,3.15
2022-11-14T03:22:16.103Z,3.13
2022-11-14T03:25:03.223Z,3.10
2022-11-14T03:27:49.999Z,3.08
2022-11-14T03:30:37.006Z,3.06
2022-11-14T03:33:24.280Z,3.06
2022-11-14T03:36:11.220Z,3.06
2022-11-14T03:38:58.584Z,3.04
2022-11-14T03:41:46.477Z,3.04
2022-11-14T03:44:34.889Z,3.03
2022-11-14T03:47:21.937Z,3.03
2022-11-14T03:50:11.109Z,3.03
2022-11-14T03:52:58.883Z,3.02
2022-11-14T03:55:46.298Z,3.03
2022-11-14T03:58:33.251Z,3.01
2022-11-14T04:01:22.526Z,2.97
2022-11-14T04:04:11.195Z,2.94
2022-11-14T04:07:00.814Z,2.92
2022-11-14T04:09:47.497Z,2.89
2022-11-14T04:12:34.133Z,2.86
2022-11-14T04:15:21.406Z,2.82
2022-11-14T04:18:08.293Z,2.78
2022-11-14T04:20:55.408Z,2.75
2022-11-14T04:23:42.199Z,2.71
2022-11-14T04:26:30.628Z,2.69
2022-11-14T04:29:17.833Z,2.67
2022-11-14T04:32:05.962Z,2.65
2022-11-14T04:34:52.908Z,2.60
2022-11-14T04:37:39.652Z,2.58
2022-11-14T04:40:26.401Z,2.56
2022-11-14T04:43:13.860Z,2.57
2022-11-14T04:46:03.792Z,2.58
2022-11-14T04:48:51.245Z,2.58
2022-11-14T04:51:39.021Z,2.60
2022-11-14T04:54:50.813Z,2.61
2022-11-14T04:57:37.699Z,2.62
2022-11-14T05:00:26.717Z,2.62
2022-11-14T05:03:14.046Z,2.63
2022-11-14T05:06:02.352Z,2.64
2022-11-14T05:08:49.130Z,2.66
2022-11-14T05:11:37.230Z,2.68
2022-11-14T05:14:25.711Z,2.67
2022-11-14T05:17:16.215Z,2.65
2022-11-14T05:20:08.918Z,2.67
2022-11-14T05:23:20.341Z,2.70
2022-11-14T05:26:13.060Z,2.74
2022-11-14T05:29:02.272Z,2.78
2022-11-14T05:31:53.445Z,2.81
2022-11-14T05:34:40.731Z,2.84
2022-11-14T05:37:28.835Z,2.85
2022-11-14T05:40:17.275Z,2.86
2022-11-14T05:43:10.032Z,2.87
2022-11-14T05:46:03.236Z,2.86
2022-11-14T05:48:53.105Z,2.83
2022-11-14T05:51:50.782Z,2.82
2022-11-14T05:54:41.212Z,2.81
2022-11-14T05:57:29.181Z,2.81
2022-11-14T06:00:18.525Z,2.81
2022-11-14T06:03:07.418Z,2.81
2022-11-14T06:06:05.042Z,2.81
2022-11-14T06:08:54.958Z,2.79
2022-11-14T06:11:41.763Z,2.80
2022-11-14T06:14:30.707Z,2.74
2022-11-14T06:17:20.181Z,2.70
2022-11-14T06:20:09.225Z,2.66
2022-11-14T06:22:59.252Z,2.62
2022-11-14T06:25:55.161Z,2.59
2022-11-14T06:28:42.221Z,2.55
2022-11-14T06:31:29.549Z,2.50
2022-11-14T06:34:17.058Z,2.51
2022-11-14T06:37:08.684Z,2.56
2022-11-14T06:40:02.401Z,2.62
2022-11-14T06:42:57.988Z,2.68
2022-11-14T06:45:49.027Z,2.73
2022-11-14T06:48:42.981Z,2.77
2022-11-14T06:51:34.558Z,2.85
2022-11-14T06:54:22.516Z,2.94
2022-11-14T06:57:13.179Z,3.02
2022-11-14T07:00:23.737Z,3.08
2022-11-14T07:07:10.424Z,3.23
2022-11-14T07:09:58.988Z,3.19
2022-11-14T07:13:13.613Z,3.09
2022-11-14T07:16:09.635Z,3.13
2022-11-14T07:19:28.096Z,3.23
2022-11-14T07:22:53.007Z,3.33
2022-11-14T07:25:42.127Z,3.41
2022-11-14T07:28:32.228Z,3.49
2022-11-14T07:31:26.458Z,3.56
2022-11-14T07:34:12.133Z,3.63
2022-11-14T07:37:04.391Z,3.72
2022-11-14T07:39:51.095Z,3.80
2022-11-14T07:45:52.289Z,3.94
2022-11-14T07:49:03.805Z,4.02
2022-11-14T07:51:53.505Z,4.12
2022-11-14T07:54:40.450Z,4.21
2022-11-14T07:57:26.960Z,4.29
2022-11-14T08:03:26.021Z,4.45
2022-11-14T08:06:17.482Z,4.52
2022-11-14T08:09:06.931Z,4.59
2022-11-14T08:12:19.260Z,4.69
2022-11-14T08:15:14.652Z,4.81
2022-11-14T08:18:06.771Z,4.89
2022-11-14T08:20:59.561Z,4.94
2022-11-14T08:24:16.150Z,5.01
2022-11-14T08:27:03.581Z,5.08
2022-11-14T08:30:01.871Z,5.14
2022-11-14T08:32:48.116Z,5.27
2022-11-14T08:46:44.512Z,5.96
2022-11-14T08:49:33.985Z,6.37
2022-11-14T08:52:28.541Z,6.41
2022-11-14T08:55:16.734Z,6.43
2022-11-14T08:58:02.498Z,6.46
2022-11-14T09:00:48.088Z,6.52
2022-11-14T09:03:34.045Z,6.62
2022-11-14T09:06:20.015Z,6.74
2022-11-14T09:09:06.646Z,6.84
2022-11-14T09:12:14.194Z,6.94
2022-11-14T09:15:34.788Z,7.03
2022-11-14T09:18:50.658Z,7.11
2022-11-14T09:21:50.032Z,7.23
2022-11-14T09:24:38.147Z,7.35
2022-11-14T09:27:36.022Z,7.43
2022-11-14T09:30:23.240Z,7.44
2022-11-14T09:33:11.952Z,7.44
2022-11-14T09:36:10.469Z,7.43
2022-11-14T09:39:11.451Z,7.45
2022-11-14T09:42:18.738Z,7.48
2022-11-14T09:45:39.641Z,7.51
2022-11-14T09:49:03.721Z,7.61
2022-11-14T09:55:13.722Z,7.78
2022-11-14T09:58:01.530Z,7.86
2022-11-14T10:00:57.223Z,7.88
2022-11-14T10:07:19.762Z,7.92
2022-11-14T10:14:09.021Z,8.11
2022-11-14T10:17:18.402Z,8.22
2022-11-14T11:05:32.559Z,10.79
2022-11-14T11:08:44.360Z,10.79
2022-11-14T11:15:24.832Z,10.82
2022-11-14T11:18:32.953Z,10.85
2022-11-14T11:21:28.639Z,10.92
2022-11-14T11:24:35.081Z,10.96
2022-11-14T11:27:28.155Z,10.98
2022-11-14T11:30:31.033Z,11.01
2022-11-14T11:37:09.623Z,11.11
2022-11-14T11:40:02.546Z,11.17
2022-11-14T11:50:35.250Z,11.34
2022-11-14T11:53:47.009Z,11.39
2022-11-14T11:56:36.218Z,11.42
2022-11-14T11:59:42.032Z,11.45
2022-11-14T12:02:32.213Z,11.51
2022-11-14T12:05:45.119Z,11.57
2022-11-14T12:08:38.351Z,11.61
2022-11-14T12:11:44.890Z,11.67
2022-11-14T12:15:01.125Z,11.79
2022-11-14T12:18:00.292Z,11.89
2022-11-14T12:21:42.762Z,11.97
2022-11-14T12:24:43.951Z,12.08
2022-11-14T12:28:00.059Z,12.15
2022-11-14T12:31:00.302Z,12.21
2022-11-14T12:34:17.046Z,12.29
2022-11-14T12:37:16.676Z,12.42
2022-11-14T12:40:32.929Z,12.56
2022-11-14T12:43:40.184Z,12.68
2022-11-14T12:47:08.599Z,12.78
2022-11-14T12:50:01.215Z,12.86
2022-11-14T12:52:51.959Z,12.93
2022-11-14T12:55:57.278Z,12.96
2022-11-14T12:59:01.992Z,13.00
2022-11-14T13:01:53.335Z,13.03
2022-11-14T13:05:00.400Z,13.06
2022-11-14T13:08:34.865Z,13.11
2022-11-14T13:12:02.280Z,13.16
2022-11-14T13:19:56.889Z,13.22
2022-11-14T13:26:42.809Z,13.25
2022-11-14T13:29:39.624Z,13.25
2022-11-14T13:41:47.035Z,13.22
2022-11-14T13:45:41.667Z,13.20
2022-11-14T13:48:53.760Z,13.18
2022-11-14T13:52:09.314Z,13.15
2022-11-14T13:57:10.166Z,13.11
2022-11-14T13:59:41.187Z,13.07
2022-11-14T14:03:16.647Z,12.99
2022-11-14T14:06:52.996Z,12.92
2022-11-14T14:10:36.004Z,12.86
2022-11-14T14:14:08.944Z,12.78
2022-11-14T14:21:29.391Z,12.60
2022-11-14T14:28:45.217Z,12.42
2022-11-14T14:31:40.840Z,12.32
2022-11-14T14:34:31.013Z,12.22
2022-11-14T14:37:33.400Z,12.12
2022-11-14T14:40:28.253Z,12.02
2022-11-14T14:43:34.879Z,11.93
2022-11-14T14:46:34.398Z,11.83
2022-11-14T14:49:37.835Z,11.77
2022-11-14T14:52:57.320Z,11.71
2022-11-14T14:59:25.682Z,11.56
2022-11-14T15:06:30.005Z,11.40
2022-11-14T15:09:30.797Z,11.31
2022-11-14T15:12:20.610Z,11.23
2022-11-14T15:15:19.019Z,11.17
2022-11-14T15:18:09.058Z,11.11
2022-11-14T15:21:13.747Z,11.04
2022-11-14T15:24:14.593Z,10.97
2022-11-14T15:27:06.091Z,10.92
2022-11-14T15:30:09.652Z,10.84
2022-11-14T15:33:05.371Z,10.75
2022-11-14T15:36:06.888Z,10.68
2022-11-14T15:39:24.340Z,10.63
2022-11-14T15:42:32.022Z,10.55
2022-11-14T15:45:26.270Z,10.47
2022-11-14T15:48:21.338Z,10.38
2022-11-14T15:51:09.530Z,10.28
2022-11-14T15:53:58.265Z,10.18
2022-11-14T15:56:47.964Z,10.04
2022-11-14T15:59:35.186Z,9.92
2022-11-14T16:02:26.782Z,9.80
2022-11-14T16:05:22.680Z,9.72
2022-11-14T16:08:12.932Z,9.67
2022-11-14T16:11:02.036Z,9.65
2022-11-14T16:13:49.028Z,9.61
2022-11-14T16:16:36.047Z,9.58
2022-11-14T16:19:23.219Z,9.52
2022-11-14T16:22:17.899Z,9.45
2022-11-14T16:25:06.208Z,9.35
2022-11-14T16:27:56.460Z,9.28
2022-11-14T16:30:44.246Z,9.21
2022-11-14T16:33:32.024Z,9.13
2022-11-14T16:36:23.323Z,9.07
2022-11-14T16:39:18.165Z,8.99
2022-11-14T16:42:08.510Z,8.92
2022-11-14T16:45:50.746Z,8.83
2022-11-14T16:48:45.272Z,8.73
2022-11-14T16:51:51.525Z,8.66
2022-11-14T16:54:41.272Z,8.60
2022-11-14T16:57:56.537Z,8.53
2022-11-14T17:00:44.168Z,8.45
2022-11-14T17:03:34.301Z,8.41
2022-11-14T17:06:21.652Z,8.35
2022-11-14T17:09:08.869Z,8.30
2022-11-14T17:11:56.143Z,8.24
2022-11-14T17:14:51.806Z,8.17
2022-11-14T17:17:48.160Z,8.10
2022-11-14T17:20:38.930Z,8.09
2022-11-14T17:23:27.276Z,8.11
2022-11-14T17:26:14.297Z,8.12
2022-11-14T17:29:01.175Z,8.11
2022-11-14T17:31:51.471Z,8.09
2022-11-14T17:34:38.183Z,8.04
2022-11-14T17:37:28.824Z,8.01
2022-11-14T17:40:16.187Z,7.98
2022-11-14T17:43:03.272Z,7.95
2022-11-14T17:45:56.529Z,7.93
2022-11-14T17:48:47.352Z,7.90
2022-11-14T17:51:34.753Z,7.85
2022-11-14T17:54:27.040Z,7.82
2022-11-14T17:57:16.550Z,7.79
2022-11-14T18:00:09.542Z,7.78
2022-11-14T18:03:01.578Z,7.79
2022-11-14T18:05:58.830Z,7.78
2022-11-14T18:08:45.845Z,7.77
2022-11-14T18:11:35.126Z,7.76
2022-11-14T18:14:24.893Z,7.76
2022-11-14T18:17:13.684Z,7.76
2022-11-14T18:20:01.889Z,7.75
2022-11-14T18:22:50.626Z,7.73
2022-11-14T18:25:37.504Z,7.70
2022-11-14T18:28:24.509Z,7.67
2022-11-14T18:31:12.164Z,7.60
2022-11-14T18:33:58.909Z,7.55
2022-11-14T18:36:46.425Z,7.52
2022-11-14T18:39:33.284Z,7.48
2022-11-14T18:42:20.231Z,7.44
2022-11-14T18:45:57.607Z,7.41
2022-11-14T18:48:56.133Z,7.39
2022-11-14T18:52:05.497Z,7.39
2022-11-14T18:54:57.685Z,7.40
2022-11-14T18:57:45.306Z,7.41
2022-11-14T19:00:33.124Z,7.44
2022-11-14T19:03:21.130Z,7.46
2022-11-14T19:06:10.261Z,7.49
2022-11-14T19:09:08.151Z,7.54
2022-11-14T19:12:16.662Z,7.56
2022-11-14T19:15:04.260Z,7.58
2022-11-14T19:17:51.229Z,7.60
2022-11-14T19:20:39.731Z,7.63
2022-11-14T19:23:28.063Z,7.63
2022-11-14T19:26:15.146Z,7.65
2022-11-14T19:29:06.747Z,7.67
2022-11-14T19:31:54.666Z,7.71
2022-11-14T19:34:41.533Z,7.73
2022-11-14T19:37:30.031Z,7.75
2022-11-14T19:40:21.372Z,7.77
2022-11-14T19:43:11.881Z,7.79
2022-11-14T19:46:06.399Z,7.80
2022-11-14T19:48:58.784Z,7.83
2022-11-14T19:51:46.521Z,7.85
2022-11-14T19:54:33.541Z,7.88
2022-11-14T19:57:20.729Z,7.94
2022-11-14T20:00:09.265Z,8.00
2022-11-14T20:02:57.464Z,8.06
2022-11-14T20:05:46.151Z,8.12
2022-11-14T20:08:33.949Z,8.19
2022-11-14T20:11:22.270Z,8.27
2022-11-14T20:14:12.275Z,8.32
2022-11-14T20:16:59.692Z,8.36
2022-11-14T20:19:48.278Z,8.39
2022-11-14T20:22:42.105Z,8.41
2022-11-14T20:25:29.128Z,8.41
2022-11-14T20:28:16.483Z,8.42
2022-11-14T20:31:14.882Z,8.43
2022-11-14T20:34:05.030Z,8.43
2022-11-14T20:39:58.889Z,8.43
2022-11-14T20:42:49.235Z,8.43
2022-11-14T20:45:36.279Z,8.42
2022-11-14T20:48:24.212Z,8.42
2022-11-14T20:51:15.680Z,8.42
2022-11-14T20:54:03.520Z,8.40
2022-11-14T20:57:12.429Z,8.40
2022-11-14T21:00:13.639Z,8.41
2022-11-14T21:03:01.188Z,8.42
2022-11-14T21:05:51.351Z,8.44
2022-11-14T21:08:40.718Z,8.44
2022-11-14T21:11:28.445Z,8.45
2022-11-14T21:14:15.161Z,8.44
2022-11-14T21:17:02.175Z,8.43
2022-11-14T21:19:50.309Z,8.45
2022-11-14T21:22:40.252Z,8.47
2022-11-14T21:25:27.396Z,8.48
2022-11-14T21:28:15.278Z,8.50
2022-11-14T21:31:26.407Z,8.50
2022-11-14T21:34:15.769Z,8.50
2022-11-14T21:37:02.874Z,8.50
2022-11-14T21:39:49.267Z,8.54
2022-11-14T21:42:36.085Z,8.57
2022-11-14T21:45:22.920Z,8.55
2022-11-14T21:48:09.762Z,8.53
2022-11-14T21:51:07.641Z,8.52
2022-11-14T21:54:00.088Z,8.50
2022-11-14T21:56:46.564Z,8.50
2022-11-14T21:59:34.888Z,8.49
2022-11-14T22:02:40.857Z,8.47
2022-11-14T22:05:28.322Z,8.46
2022-11-14T22:08:16.026Z,8.45
2022-11-14T22:11:02.578Z,8.42
2022-11-14T22:13:50.125Z,8.40
2022-11-14T22:16:38.510Z,8.37
2022-11-14T22:19:28.327Z,8.33
2022-11-14T22:22:15.249Z,8.30
2022-11-14T22:25:03.429Z,8.26
2022-11-14T22:27:52.827Z,8.24
2022-11-14T22:30:40.732Z,8.23
2022-11-14T22:33:32.100Z,8.20
2022-11-14T22:36:25.344Z,8.14
2022-11-14T22:39:11.890Z,8.10
2022-11-14T22:41:58.495Z,8.08
2022-11-14T22:44:45.655Z,8.05
2022-11-14T22:47:32.462Z,8.03
2022-11-14T22:50:19.341Z,7.99
2022-11-14T22:53:06.548Z,7.96
2022-11-14T22:55:53.635Z,7.96
2022-11-14T22:58:42.336Z,7.94
2022-11-14T23:01:31.590Z,7.92
2022-11-14T23:04:18.582Z,7.88
2022-11-14T23:07:05.359Z,7.84
2022-11-14T23:09:52.346Z,7.83
2022-11-14T23:12:40.452Z,7.81
2022-11-14T23:15:27.309Z,7.78
2022-11-14T23:18:14.181Z,7.72
2022-11-14T23:21:08.500Z,7.65
2022-11-14T23:24:02.912Z,7.60
2022-11-14T23:26:49.574Z,7.54
2022-11-14T23:29:39.060Z,7.47
2022-11-14T23:32:30.279Z,7.41
2022-11-14T23:35:18.627Z,7.34
2022-11-14T23:38:06.104Z,7.28
2022-11-14T23:41:00.962Z,7.21
2022-11-14T23:43:50.868Z,7.16
2022-11-14T23:46:37.190Z,7.12
2022-11-14T23:49:24.270Z,7.08
2022-11-14T23:52:11.297Z,7.05
2022-11-14T23:54:57.934Z,7.03
2022-11-14T23:57:48.087Z,7.03
